Time;durP1;ratioP1;P1;durP2;ratioP2;P2;SDS_P1;SDS_P2;PMS_P1;PMS_P2;Temp;Humidity;BMP_temperature;BMP_pressure;BME280_temperature;BME280_humidity;BME280_pressure;Samples;Min_cycle;Max_cycle;Signal;HPM_P1;HPM_P2
2023/12/12 00:02:00;;;;;;;55.53;1.90;;;;;;;;;;5094114;28;20455;-72
2023/12/12 00:04:27;;;;;;;55.90;2.10;;;;;;;;;;5093838;28;20440;-72
2023/12/12 00:06:54;;;;;;;55.17;2.37;;;;;;;;;;5094005;28;20491;-72
2023/12/12 00:09:22;;;;;;;56.10;2.00;;;;;;;;;;5094177;28;20439;-72
2023/12/12 00:11:51;;;;;;;55.90;2.20;;;;;;;;;;5093882;28;20440;-72
2023/12/12 00:14:19;;;;;;;55.77;2.10;;;;;;;;;;5093755;28;20464;-72
2023/12/12 00:16:46;;;;;;;55.97;2.13;;;;;;;;;;5093885;28;20826;-72
2023/12/12 00:19:13;;;;;;;55.37;2.00;;;;;;;;;;5093819;28;20509;-72
2023/12/12 00:21:40;;;;;;;56.07;2.50;;;;;;;;;;5093797;28;20448;-72
2023/12/12 00:24:07;;;;;;;56.13;2.17;;;;;;;;;;5093537;28;20478;-72
2023/12/12 00:26:35;;;;;;;55.60;2.30;;;;;;;;;;5093648;28;20440;-72
2023/12/12 00:29:02;;;;;;;56.00;2.27;;;;;;;;;;5093537;28;20440;-72
2023/12/12 00:31:30;;;;;;;55.80;2.30;;;;;;;;;;5093426;28;20453;-72
2023/12/12 00:33:57;;;;;;;56.30;2.77;;;;;;;;;;5093167;28;21082;-72
2023/12/12 00:36:24;;;;;;;56.07;2.30;;;;;;;;;;5093381;28;20446;-72
2023/12/12 00:38:51;;;;;;;55.90;2.07;;;;;;;;;;5093350;28;20488;-72
2023/12/12 00:41:18;;;;;;;55.37;2.20;;;;;;;;;;5093231;28;20458;-72
2023/12/12 00:43:47;;;;;;;56.03;2.10;;;;;;;;;;5093180;28;20478;-72
2023/12/12 00:46:14;;;;;;;55.87;1.90;;;;;;;;;;5093184;28;20438;-72
2023/12/12 00:48:41;;;;;;;56.10;2.40;;;;;;;;;;5093270;28;20453;-72
2023/12/12 00:51:09;;;;;;;56.07;2.63;;;;;;;;;;5090531;28;20463;-72
2023/12/12 00:53:36;;;;;;;55.87;2.30;;;;;;;;;;5092845;28;20472;-72
2023/12/12 00:56:03;;;;;;;55.73;2.10;;;;;;;;;;5092730;28;20452;-72
2023/12/12 00:58:30;;;;;;;56.10;2.50;;;;;;;;;;5093170;28;20576;-72
2023/12/12 01:00:59;;;;;;;55.97;2.20;;;;;;;;;;5093133;28;20457;-72
2023/12/12 01:03:26;;;;;;;55.83;2.30;;;;;;;;;;5092846;28;20482;-72
2023/12/12 01:05:53;;;;;;;55.90;2.07;;;;;;;;;;5092763;28;20454;-72
2023/12/12 01:08:20;;;;;;;56.20;2.57;;;;;;;;;;5084665;28;20970;-72
2023/12/12 01:10:47;;;;;;;56.07;2.60;;;;;;;;;;5092695;28;20453;-72
2023/12/12 01:13:14;;;;;;;55.70;2.30;;;;;;;;;;5092764;28;20833;-72
2023/12/12 01:15:41;;;;;;;55.67;2.30;;;;;;;;;;5092969;28;20499;-72
2023/12/12 01:18:10;;;;;;;55.73;2.33;;;;;;;;;;5092503;28;20492;-72
2023/12/12 01:20:37;;;;;;;55.87;2.13;;;;;;;;;;5092692;28;20573;-72
2023/12/12 01:23:04;;;;;;;55.97;2.47;;;;;;;;;;5092300;28;20465;-72
2023/12/12 01:25:31;;;;;;;55.63;2.10;;;;;;;;;;5092575;28;20454;-72
2023/12/12 01:27:58;;;;;;;55.77;2.30;;;;;;;;;;5092394;28;20445;-72
2023/12/12 01:30:25;;;;;;;55.97;2.50;;;;;;;;;;5092512;28;20456;-72
2023/12/12 01:32:52;;;;;;;55.33;2.20;;;;;;;;;;5092144;28;20477;-72
2023/12/12 01:35:21;;;;;;;55.27;2.17;;;;;;;;;;5091653;28;20456;-72
2023/12/12 01:37:48;;;;;;;56.00;2.43;;;;;;;;;;5092352;28;20579;-72
2023/12/12 01:40:15;;;;;;;55.80;2.17;;;;;;;;;;5092207;28;20446;-72
2023/12/12 01:42:43;;;;;;;55.47;2.07;;;;;;;;;;5092184;28;20473;-72
2023/12/12 01:45:10;;;;;;;55.67;2.27;;;;;;;;;;5092301;28;20453;-72
2023/12/12 01:47:37;;;;;;;55.67;2.10;;;;;;;;;;5092224;28;20458;-72
2023/12/12 01:50:05;;;;;;;55.87;2.07;;;;;;;;;;5091919;28;20454;-72
2023/12/12 01:52:33;;;;;;;56.20;2.53;;;;;;;;;;5091875;28;20478;-72
2023/12/12 01:55:01;;;;;;;56.00;2.23;;;;;;;;;;5091845;28;20444;-72
2023/12/12 01:57:28;;;;;;;55.97;2.33;;;;;;;;;;5091980;28;20463;-72
2023/12/12 01:59:55;;;;;;;55.70;2.30;;;;;;;;;;5091889;28;20459;-72
2023/12/12 02:02:22;;;;;;;55.67;2.00;;;;;;;;;;5091608;28;20842;-72
2023/12/12 02:04:50;;;;;;;55.77;2.30;;;;;;;;;;5091520;28;20453;-72
2023/12/12 02:07:17;;;;;;;55.93;2.20;;;;;;;;;;5091660;28;20448;-72
2023/12/12 02:09:46;;;;;;;55.67;2.13;;;;;;;;;;5091763;28;20448;-72
2023/12/12 02:12:13;;;;;;;55.80;2.20;;;;;;;;;;5091426;28;20821;-72
2023/12/12 02:14:40;;;;;;;55.93;2.17;;;;;;;;;;5091941;28;20455;-72
2023/12/12 02:17:08;;;;;;;55.77;2.00;;;;;;;;;;5091191;28;20464;-72
2023/12/12 02:19:35;;;;;;;55.97;1.90;;;;;;;;;;5091470;28;20500;-73
2023/12/12 02:22:03;;;;;;;55.87;2.20;;;;;;;;;;5091371;28;20457;-72
2023/12/12 02:24:30;;;;;;;56.00;2.03;;;;;;;;;;5091660;28;20457;-72
2023/12/12 02:26:58;;;;;;;55.73;2.30;;;;;;;;;;5091276;28;20457;-72
2023/12/12 02:29:25;;;;;;;55.77;2.13;;;;;;;;;;5091447;28;20448;-72
2023/12/12 02:31:52;;;;;;;55.80;2.10;;;;;;;;;;5091193;28;20833;-72
2023/12/12 02:34:19;;;;;;;55.97;1.90;;;;;;;;;;5091338;28;20465;-72
2023/12/12 02:36:46;;;;;;;55.77;2.20;;;;;;;;;;5091347;28;20452;-72
2023/12/12 02:39:15;;;;;;;56.30;2.40;;;;;;;;;;5091362;28;20936;-72
2023/12/12 02:41:42;;;;;;;55.87;2.40;;;;;;;;;;5091139;28;20459;-72
2023/12/12 02:44:09;;;;;;;55.37;2.40;;;;;;;;;;5091017;28;20835;-72
2023/12/12 02:46:39;;;;;;;55.60;2.20;;;;;;;;;;5089970;28;20460;-72
2023/12/12 02:49:06;;;;;;;56.00;2.70;;;;;;;;;;5091095;28;20549;-72
2023/12/12 02:51:34;;;;;;;56.07;2.63;;;;;;;;;;5089406;28;20453;-72
2023/12/12 02:54:01;;;;;;;56.00;2.50;;;;;;;;;;5090813;28;20465;-71
2023/12/12 02:56:33;;;;;;;55.43;2.07;;;;;;;;;;5090851;28;20448;-72
2023/12/12 02:59:00;;;;;;;55.67;2.30;;;;;;;;;;5090944;28;20481;-72
2023/12/12 03:01:27;;;;;;;58.17;2.63;;;;;;;;;;5090934;28;20820;-72
2023/12/12 03:03:54;;;;;;;55.93;2.30;;;;;;;;;;5091206;28;20477;-72
2023/12/12 03:06:21;;;;;;;55.90;2.20;;;;;;;;;;5090548;28;20453;-71
2023/12/12 03:11:55;;;;;;;56.10;2.70;;;;;;;;;;5090013;28;20413;-72
2023/12/12 03:14:27;;;;;;;55.90;2.60;;;;;;;;;;5090716;28;20519;-72
2023/12/12 03:16:54;;;;;;;57.70;3.57;;;;;;;;;;5090788;28;20461;-72
2023/12/12 03:19:22;;;;;;;55.90;2.37;;;;;;;;;;5091283;28;20485;-72
2023/12/12 03:21:49;;;;;;;56.00;2.30;;;;;;;;;;5090843;28;20526;-72
2023/12/12 03:24:17;;;;;;;56.30;2.73;;;;;;;;;;5090776;28;20469;-72
2023/12/12 03:26:44;;;;;;;55.97;2.70;;;;;;;;;;5090890;28;20489;-72
2023/12/12 03:29:12;;;;;;;55.87;2.60;;;;;;;;;;5090868;28;20820;-72
2023/12/12 03:31:40;;;;;;;56.00;2.40;;;;;;;;;;5090748;28;20454;-71
2023/12/12 03:34:07;;;;;;;55.83;2.40;;;;;;;;;;5090482;28;20477;-72
2023/12/12 03:36:35;;;;;;;56.07;2.47;;;;;;;;;;5090714;28;20876;-72
2023/12/12 03:39:02;;;;;;;57.17;3.40;;;;;;;;;;5090774;28;20483;-72
2023/12/12 03:41:29;;;;;;;55.90;2.40;;;;;;;;;;5090920;28;20874;-72
2023/12/12 03:43:56;;;;;;;55.67;2.40;;;;;;;;;;5090499;28;20461;-72
2023/12/12 03:46:25;;;;;;;56.20;2.83;;;;;;;;;;5090597;28;20951;-72
2023/12/12 03:48:52;;;;;;;55.70;2.60;;;;;;;;;;5090549;28;20445;-72
2023/12/12 03:51:19;;;;;;;56.10;2.70;;;;;;;;;;5090798;28;20803;-72
2023/12/12 03:53:46;;;;;;;55.87;2.23;;;;;;;;;;5090572;28;20469;-72
2023/12/12 03:56:13;;;;;;;55.77;2.20;;;;;;;;;;5090292;28;20455;-72
2023/12/12 03:58:40;;;;;;;56.10;2.10;;;;;;;;;;5093065;28;21007;-72
2023/12/12 04:01:07;;;;;;;56.00;2.50;;;;;;;;;;5094190;28;20447;-72
2023/12/12 04:03:36;;;;;;;55.80;2.53;;;;;;;;;;5093975;28;20464;-72
2023/12/12 04:06:03;;;;;;;55.97;2.60;;;;;;;;;;5094183;28;20816;-72
2023/12/12 04:08:30;;;;;;;55.57;2.37;;;;;;;;;;5094281;28;20441;-72
2023/12/12 04:10:58;;;;;;;56.00;2.30;;;;;;;;;;5094315;28;20932;-72
2023/12/12 04:13:25;;;;;;;55.87;2.20;;;;;;;;;;5093867;28;20472;-72
2023/12/12 04:15:52;;;;;;;55.90;3.10;;;;;;;;;;5093728;28;20445;-72
2023/12/12 04:18:19;;;;;;;55.87;2.60;;;;;;;;;;5093692;28;20953;-72
2023/12/12 04:20:48;;;;;;;55.70;2.30;;;;;;;;;;5093983;28;20456;-72
2023/12/12 04:23:15;;;;;;;55.90;2.27;;;;;;;;;;5093579;28;20473;-71
2023/12/12 04:25:42;;;;;;;55.87;2.70;;;;;;;;;;5093819;28;20450;-71
2023/12/12 04:28:10;;;;;;;55.57;2.03;;;;;;;;;;5094141;28;20449;-72
2023/12/12 04:30:37;;;;;;;55.70;2.40;;;;;;;;;;5093609;28;20457;-72
2023/12/12 04:33:04;;;;;;;56.30;2.73;;;;;;;;;;5093519;28;20465;-72
2023/12/12 04:35:31;;;;;;;55.80;2.50;;;;;;;;;;5093617;28;20454;-72
2023/12/12 04:38:00;;;;;;;55.70;2.27;;;;;;;;;;5093692;28;20452;-72
2023/12/12 04:40:29;;;;;;;55.87;2.20;;;;;;;;;;5093292;28;20493;-72
2023/12/12 04:42:56;;;;;;;55.80;2.37;;;;;;;;;;5093139;28;20880;-72
2023/12/12 04:45:23;;;;;;;56.17;2.50;;;;;;;;;;5093451;28;20458;-71
2023/12/12 04:47:50;;;;;;;57.20;3.00;;;;;;;;;;5093536;28;20460;-71
2023/12/12 04:50:17;;;;;;;55.83;2.20;;;;;;;;;;5093230;28;20438;-72
2023/12/12 04:52:45;;;;;;;56.00;2.60;;;;;;;;;;5093182;28;20475;-72
2023/12/12 04:55:13;;;;;;;55.73;2.50;;;;;;;;;;5092432;28;20471;-72
2023/12/12 04:57:40;;;;;;;55.93;2.67;;;;;;;;;;5093330;28;20453;-72
2023/12/12 05:00:13;;;;;;;55.87;2.33;;;;;;;;;;5092671;28;20567;-72
2023/12/12 05:02:41;;;;;;;55.97;2.50;;;;;;;;;;5093013;28;20468;-72
2023/12/12 05:05:08;;;;;;;56.07;2.60;;;;;;;;;;5092803;28;20874;-71
2023/12/12 05:07:35;;;;;;;55.83;2.70;;;;;;;;;;5092952;28;20459;-72
2023/12/12 05:10:02;;;;;;;55.87;2.60;;;;;;;;;;5092032;28;20448;-72
2023/12/12 05:12:31;;;;;;;56.10;2.47;;;;;;;;;;5092892;28;20461;-72
2023/12/12 05:14:58;;;;;;;56.27;3.03;;;;;;;;;;5092627;28;20445;-72
2023/12/12 05:17:25;;;;;;;55.80;2.60;;;;;;;;;;5092666;28;20454;-72
2023/12/12 05:19:52;;;;;;;55.80;2.53;;;;;;;;;;5093102;28;20868;-72
2023/12/12 05:22:19;;;;;;;55.70;2.37;;;;;;;;;;5092381;28;20459;-72
2023/12/12 05:24:46;;;;;;;56.00;2.53;;;;;;;;;;5092503;28;20449;-72
2023/12/12 05:27:14;;;;;;;55.83;2.40;;;;;;;;;;5092673;28;20460;-72
2023/12/12 05:29:42;;;;;;;70.10;2.90;;;;;;;;;;5092631;28;20451;-72
2023/12/12 05:32:09;;;;;;;55.70;2.13;;;;;;;;;;5092319;28;20452;-72
2023/12/12 05:34:36;;;;;;;55.70;2.40;;;;;;;;;;5092361;28;20943;-72
2023/12/12 05:37:03;;;;;;;55.87;2.47;;;;;;;;;;5092186;28;20936;-72
2023/12/12 05:39:30;;;;;;;56.00;2.60;;;;;;;;;;5092555;28;20490;-72
2023/12/12 05:41:58;;;;;;;55.93;2.60;;;;;;;;;;5092386;28;20453;-72
2023/12/12 05:44:25;;;;;;;55.57;2.20;;;;;;;;;;5092191;28;20471;-72
2023/12/12 05:46:53;;;;;;;55.97;2.10;;;;;;;;;;5092561;28;20543;-72
2023/12/12 05:49:21;;;;;;;55.97;2.40;;;;;;;;;;5092012;28;20457;-72
2023/12/12 05:51:48;;;;;;;55.70;2.20;;;;;;;;;;5091366;28;20463;-72
2023/12/12 05:54:15;;;;;;;55.87;2.30;;;;;;;;;;5092137;28;20469;-72
2023/12/12 05:56:45;;;;;;;55.70;2.40;;;;;;;;;;5092040;28;20444;-72
2023/12/12 05:59:14;;;;;;;55.90;2.30;;;;;;;;;;5091882;28;20492;-72
2023/12/12 06:01:41;;;;;;;56.07;2.50;;;;;;;;;;5091743;28;20451;-72
2023/12/12 06:04:11;;;;;;;55.77;2.33;;;;;;;;;;5091540;28;20840;-72
2023/12/12 06:06:42;;;;;;;55.80;2.50;;;;;;;;;;5091529;28;20459;-72
2023/12/12 06:09:10;;;;;;;55.67;2.30;;;;;;;;;;5091801;28;20457;-72
2023/12/12 06:11:37;;;;;;;55.53;2.20;;;;;;;;;;5091627;28;20448;-73
2023/12/12 06:14:05;;;;;;;55.87;2.37;;;;;;;;;;5091723;28;20476;-73
2023/12/12 06:16:32;;;;;;;56.03;2.60;;;;;;;;;;5091216;28;20481;-73
2023/12/12 06:18:59;;;;;;;56.17;3.00;;;;;;;;;;5091734;28;20454;-73
2023/12/12 06:21:28;;;;;;;55.70;2.50;;;;;;;;;;5091735;28;20451;-73
2023/12/12 06:23:55;;;;;;;55.73;2.20;;;;;;;;;;5091350;28;20472;-72
2023/12/12 06:26:22;;;;;;;55.63;2.30;;;;;;;;;;5091257;28;20936;-73
2023/12/12 06:28:49;;;;;;;55.80;2.57;;;;;;;;;;5091535;28;20472;-73
2023/12/12 06:31:17;;;;;;;56.30;3.13;;;;;;;;;;5091232;28;20464;-73
2023/12/12 06:33:44;;;;;;;56.20;2.60;;;;;;;;;;5090939;28;20468;-73
2023/12/12 06:36:11;;;;;;;55.60;2.60;;;;;;;;;;5091038;28;20459;-73
2023/12/12 06:38:39;;;;;;;56.00;2.20;;;;;;;;;;5091310;28;20445;-72
2023/12/12 06:41:07;;;;;;;55.67;2.30;;;;;;;;;;5091375;28;20486;-73
2023/12/12 06:43:35;;;;;;;55.90;2.60;;;;;;;;;;5082864;28;20481;-73
2023/12/12 06:46:02;;;;;;;55.63;2.40;;;;;;;;;;5091611;28;20446;-74
2023/12/12 06:48:29;;;;;;;55.43;2.10;;;;;;;;;;5091465;28;20464;-73
2023/12/12 06:50:56;;;;;;;55.93;2.43;;;;;;;;;;5091250;28;20447;-73
2023/12/12 06:53:23;;;;;;;55.63;2.07;;;;;;;;;;5090780;28;20476;-73
2023/12/12 06:55:51;;;;;;;56.20;2.60;;;;;;;;;;5090948;28;20447;-73
2023/12/12 06:58:19;;;;;;;55.87;2.37;;;;;;;;;;5090579;28;20453;-73
2023/12/12 07:00:46;;;;;;;56.00;2.50;;;;;;;;;;5091041;28;20486;-73
2023/12/12 07:03:13;;;;;;;55.37;2.20;;;;;;;;;;5090767;28;20494;-73
2023/12/12 07:05:40;;;;;;;55.60;2.10;;;;;;;;;;5090780;28;20956;-73
2023/12/12 07:08:07;;;;;;;55.47;2.20;;;;;;;;;;5091032;28;20485;-73
2023/12/12 07:10:34;;;;;;;55.37;2.20;;;;;;;;;;5090829;28;20449;-73
2023/12/12 07:13:03;;;;;;;55.90;2.37;;;;;;;;;;5090475;28;20471;-73
2023/12/12 07:15:30;;;;;;;55.57;2.30;;;;;;;;;;5090802;28;20449;-73
2023/12/12 07:17:58;;;;;;;55.80;2.27;;;;;;;;;;5090709;28;20921;-73
2023/12/12 07:20:25;;;;;;;55.10;2.23;;;;;;;;;;5090821;28;20492;-73
2023/12/12 07:22:52;;;;;;;55.90;2.60;;;;;;;;;;5090703;28;20469;-74
2023/12/12 07:25:20;;;;;;;55.73;2.10;;;;;;;;;;5090443;28;20940;-73
2023/12/12 07:27:47;;;;;;;55.90;2.13;;;;;;;;;;5090920;28;20542;-73
2023/12/12 07:30:16;;;;;;;56.00;2.10;;;;;;;;;;5090912;28;20476;-73
2023/12/12 07:32:44;;;;;;;55.77;2.30;;;;;;;;;;5091854;28;21093;-73
2023/12/12 07:35:11;;;;;;;55.00;2.10;;;;;;;;;;5094868;28;20453;-73
2023/12/12 07:37:38;;;;;;;55.97;2.50;;;;;;;;;;5094809;28;20453;-73
2023/12/12 07:40:06;;;;;;;55.90;2.80;;;;;;;;;;5094618;28;20479;-73
2023/12/12 07:42:33;;;;;;;55.53;2.43;;;;;;;;;;5094284;28;20963;-73
2023/12/12 07:45:00;;;;;;;55.70;2.00;;;;;;;;;;5094559;28;20452;-73
2023/12/12 07:47:28;;;;;;;57.23;2.50;;;;;;;;;;5094536;28;20449;-73
2023/12/12 07:49:57;;;;;;;57.50;2.90;;;;;;;;;;5094512;28;20448;-73
2023/12/12 07:52:24;;;;;;;56.50;2.70;;;;;;;;;;5094110;28;20469;-73
2023/12/12 07:54:52;;;;;;;55.87;2.17;;;;;;;;;;5094518;28;20449;-73
2023/12/12 07:57:19;;;;;;;55.67;2.70;;;;;;;;;;5094463;28;20449;-73
2023/12/12 07:59:46;;;;;;;55.37;2.20;;;;;;;;;;5094273;28;20864;-73
2023/12/12 08:02:14;;;;;;;55.67;2.07;;;;;;;;;;5093970;28;20468;-73
2023/12/12 08:04:42;;;;;;;55.80;2.40;;;;;;;;;;5094339;28;20441;-73
2023/12/12 08:07:09;;;;;;;55.77;2.50;;;;;;;;;;5093815;28;20452;-73
2023/12/12 08:09:37;;;;;;;56.97;3.10;;;;;;;;;;5093983;28;20449;-73
2023/12/12 08:12:04;;;;;;;55.97;2.13;;;;;;;;;;5093923;28;20447;-73
2023/12/12 08:14:31;;;;;;;55.67;2.40;;;;;;;;;;5093874;28;20448;-73
2023/12/12 08:16:58;;;;;;;55.57;2.23;;;;;;;;;;5093905;28;20841;-73
2023/12/12 08:19:25;;;;;;;55.70;2.17;;;;;;;;;;5093767;28;20934;-71
2023/12/12 08:21:54;;;;;;;55.73;2.20;;;;;;;;;;5093858;28;20453;-73
2023/12/12 08:24:21;;;;;;;55.77;2.73;;;;;;;;;;5093922;28;20465;-73
2023/12/12 08:26:48;;;;;;;55.97;2.40;;;;;;;;;;5093833;28;20449;-74
2023/12/12 08:29:15;;;;;;;55.77;2.40;;;;;;;;;;5093952;28;20455;-73
2023/12/12 08:31:43;;;;;;;55.67;2.40;;;;;;;;;;5096968;28;20937;-73
2023/12/12 08:34:10;;;;;;;55.37;2.10;;;;;;;;;;5102004;28;20550;-72
2023/12/12 08:36:37;;;;;;;56.00;2.27;;;;;;;;;;5102080;28;20444;-72
2023/12/12 08:39:07;;;;;;;55.80;2.40;;;;;;;;;;5102710;28;20445;-72
2023/12/12 08:41:34;;;;;;;55.87;2.20;;;;;;;;;;5104421;28;20483;-72
2023/12/12 08:44:01;;;;;;;57.50;2.37;;;;;;;;;;5102800;28;20466;-72
2023/12/12 08:46:28;;;;;;;55.47;1.97;;;;;;;;;;5103894;28;20519;-72
2023/12/12 08:48:56;;;;;;;55.60;2.13;;;;;;;;;;5106475;28;20511;-72
2023/12/12 08:51:23;;;;;;;56.13;2.50;;;;;;;;;;5105214;28;20450;-72
2023/12/12 08:53:51;;;;;;;55.97;2.90;;;;;;;;;;5105250;28;20572;-72
2023/12/12 08:56:19;;;;;;;55.97;2.57;;;;;;;;;;5103321;28;20637;-73
2023/12/12 08:58:48;;;;;;;55.77;2.07;;;;;;;;;;5105356;28;20540;-73
2023/12/12 09:01:15;;;;;;;55.57;2.30;;;;;;;;;;5099871;28;20542;-73
2023/12/12 09:03:43;;;;;;;55.80;2.20;;;;;;;;;;5084757;28;20480;-72
2023/12/12 09:06:10;;;;;;;55.10;2.00;;;;;;;;;;5093143;28;20456;-72
2023/12/12 09:08:37;;;;;;;55.53;2.20;;;;;;;;;;5092817;28;20441;-72
2023/12/12 09:11:04;;;;;;;55.57;2.63;;;;;;;;;;5092982;28;20441;-72
2023/12/12 09:13:33;;;;;;;55.43;2.20;;;;;;;;;;5092480;28;20973;-72
2023/12/12 09:16:00;;;;;;;55.97;2.07;;;;;;;;;;5092640;28;20444;-72
2023/12/12 09:18:27;;;;;;;55.50;2.10;;;;;;;;;;5092629;28;20449;-72
2023/12/12 09:20:54;;;;;;;55.67;2.27;;;;;;;;;;5092621;28;21031;-72
2023/12/12 09:23:22;;;;;;;55.13;1.90;;;;;;;;;;5092641;28;20472;-72
2023/12/12 09:25:49;;;;;;;55.13;2.23;;;;;;;;;;5092737;28;20454;-73
2023/12/12 09:28:17;;;;;;;56.10;2.30;;;;;;;;;;5092465;28;20460;-72
2023/12/12 09:30:45;;;;;;;55.77;2.00;;;;;;;;;;5092537;28;20928;-73
2023/12/12 09:33:12;;;;;;;55.50;2.20;;;;;;;;;;5092706;28;20464;-72
2023/12/12 09:35:39;;;;;;;55.60;1.93;;;;;;;;;;5092208;28;20457;-72
2023/12/12 09:38:06;;;;;;;57.07;2.50;;;;;;;;;;5092343;28;20479;-72
2023/12/12 09:40:34;;;;;;;55.70;2.30;;;;;;;;;;5092183;28;20488;-73
2023/12/12 09:43:04;;;;;;;56.00;2.13;;;;;;;;;;5092030;28;20982;-72
2023/12/12 09:45:32;;;;;;;55.40;1.97;;;;;;;;;;5092451;28;20841;-72
2023/12/12 09:48:01;;;;;;;55.30;1.93;;;;;;;;;;5092106;28;20457;-72
2023/12/12 09:50:28;;;;;;;55.17;2.07;;;;;;;;;;5092220;28;20444;-72
2023/12/12 09:52:55;;;;;;;57.27;2.60;;;;;;;;;;5091993;28;20830;-72
2023/12/12 09:55:23;;;;;;;55.87;2.30;;;;;;;;;;5091405;28;20535;-72
2023/12/12 09:57:51;;;;;;;55.17;2.37;;;;;;;;;;5092227;28;20502;-72
2023/12/12 10:00:21;;;;;;;55.83;2.13;;;;;;;;;;5092103;28;21035;-73
2023/12/12 10:02:50;;;;;;;55.80;2.60;;;;;;;;;;5091895;28;21057;-73
2023/12/12 10:05:19;;;;;;;55.07;2.20;;;;;;;;;;5091621;28;20507;-73
2023/12/12 10:07:47;;;;;;;55.77;2.37;;;;;;;;;;5082469;28;20459;-73
2023/12/12 10:10:15;;;;;;;55.90;2.10;;;;;;;;;;5091609;28;20445;-72
2023/12/12 10:12:42;;;;;;;54.87;2.10;;;;;;;;;;5089033;28;20472;-72
2023/12/12 10:15:24;;;;;;;55.50;2.20;;;;;;;;;;5082735;28;20461;-72
2023/12/12 10:17:56;;;;;;;55.60;2.13;;;;;;;;;;5082973;28;20913;-72
2023/12/12 10:20:27;;;;;;;55.60;1.70;;;;;;;;;;5091233;28;20536;-72
2023/12/12 10:22:55;;;;;;;55.47;2.13;;;;;;;;;;5090913;28;20479;-72
2023/12/12 10:25:22;;;;;;;55.57;2.30;;;;;;;;;;5090636;28;20455;-73
2023/12/12 10:27:52;;;;;;;55.17;2.00;;;;;;;;;;5091691;28;20454;-72
2023/12/12 10:30:20;;;;;;;55.47;2.47;;;;;;;;;;5091344;28;20451;-72
2023/12/12 10:32:48;;;;;;;56.10;2.50;;;;;;;;;;5082807;28;20861;-72
2023/12/12 10:35:15;;;;;;;55.67;1.80;;;;;;;;;;5089812;28;20912;-72
2023/12/12 10:37:44;;;;;;;55.27;1.87;;;;;;;;;;5084335;28;20447;-73
2023/12/12 10:40:15;;;;;;;55.17;2.00;;;;;;;;;;5091225;28;20453;-73
2023/12/12 10:42:42;;;;;;;55.80;1.73;;;;;;;;;;5090891;28;20551;-73
2023/12/12 10:45:11;;;;;;;55.80;2.30;;;;;;;;;;5090778;28;20456;-72
2023/12/12 10:47:41;;;;;;;56.00;2.03;;;;;;;;;;5083721;28;20475;-72
2023/12/12 10:50:11;;;;;;;55.63;1.90;;;;;;;;;;5091113;28;20958;-72
2023/12/12 10:52:39;;;;;;;55.50;2.30;;;;;;;;;;5090822;28;21000;-73
2023/12/12 10:55:09;;;;;;;55.63;2.53;;;;;;;;;;5091265;28;20449;-72
2023/12/12 10:57:37;;;;;;;60.23;2.97;;;;;;;;;;5090642;28;20954;-72
2023/12/12 11:00:11;;;;;;;56.07;2.33;;;;;;;;;;5091029;28;20441;-72
2023/12/12 11:02:38;;;;;;;55.90;2.50;;;;;;;;;;5089796;28;20516;-73
2023/12/12 11:05:06;;;;;;;55.27;2.20;;;;;;;;;;5090745;28;20506;-72
2023/12/12 11:07:35;;;;;;;55.70;2.20;;;;;;;;;;5091558;28;20829;-72
2023/12/12 11:10:04;;;;;;;55.87;2.00;;;;;;;;;;5095338;28;20455;-72
2023/12/12 11:12:33;;;;;;;59.20;2.60;;;;;;;;;;5094646;28;20459;-72
2023/12/12 11:15:00;;;;;;;56.70;2.30;;;;;;;;;;5095267;28;20449;-73
2023/12/12 11:17:28;;;;;;;55.77;2.13;;;;;;;;;;5095202;28;20479;-72
2023/12/12 11:19:56;;;;;;;55.57;2.17;;;;;;;;;;5095107;28;20455;-73
2023/12/12 11:22:39;;;;;;;55.60;2.10;;;;;;;;;;5094918;28;20871;-73
2023/12/12 11:25:08;;;;;;;55.80;2.30;;;;;;;;;;5094996;28;20921;-73
2023/12/12 11:27:38;;;;;;;55.37;2.50;;;;;;;;;;5095009;28;20500;-73
2023/12/12 11:30:06;;;;;;;55.90;2.20;;;;;;;;;;5095099;28;20835;-73
2023/12/12 11:32:34;;;;;;;55.67;2.10;;;;;;;;;;5094716;28;20495;-72
2023/12/12 11:35:01;;;;;;;55.33;2.20;;;;;;;;;;5094700;28;20440;-72
2023/12/12 11:37:41;;;;;;;55.47;2.27;;;;;;;;;;5094586;28;20812;-72
2023/12/12 11:40:10;;;;;;;55.27;2.47;;;;;;;;;;5094805;28;20631;-73
2023/12/12 11:42:38;;;;;;;56.87;2.60;;;;;;;;;;5094419;28;20496;-73
2023/12/12 11:45:06;;;;;;;55.37;2.03;;;;;;;;;;5094131;28;20971;-72
2023/12/12 11:47:33;;;;;;;55.70;2.33;;;;;;;;;;5091268;28;20449;-73
2023/12/12 11:50:19;;;;;;;56.10;2.33;;;;;;;;;;5094248;28;20498;-72
2023/12/12 11:52:49;;;;;;;55.80;2.27;;;;;;;;;;5091363;28;20476;-72
2023/12/12 11:55:20;;;;;;;55.70;1.80;;;;;;;;;;5093431;28;20456;-72
2023/12/12 11:57:49;;;;;;;55.90;2.10;;;;;;;;;;5094316;28;20441;-73
2023/12/12 12:00:17;;;;;;;55.97;2.13;;;;;;;;;;5094169;28;20444;-72
2023/12/12 12:02:44;;;;;;;55.07;2.10;;;;;;;;;;5093823;28;20496;-71
2023/12/12 12:05:11;;;;;;;56.43;2.77;;;;;;;;;;5094276;28;20446;-71
2023/12/12 12:07:38;;;;;;;55.27;2.20;;;;;;;;;;5094128;28;20459;-71
2023/12/12 12:10:06;;;;;;;55.80;2.10;;;;;;;;;;5094267;28;20439;-72
2023/12/12 12:12:33;;;;;;;55.67;2.30;;;;;;;;;;5093839;28;20484;-73
2023/12/12 12:15:05;;;;;;;55.90;2.07;;;;;;;;;;5093818;28;20448;-71
2023/12/12 12:17:35;;;;;;;55.27;2.47;;;;;;;;;;5093952;28;20469;-72
2023/12/12 12:20:02;;;;;;;55.47;2.20;;;;;;;;;;5093667;28;20949;-71
2023/12/12 12:22:30;;;;;;;56.83;2.70;;;;;;;;;;5093601;28;20498;-72
2023/12/12 12:24:58;;;;;;;55.40;2.00;;;;;;;;;;5093743;28;20833;-72
2023/12/12 12:27:25;;;;;;;55.33;2.00;;;;;;;;;;5094155;28;20461;-72
2023/12/12 12:30:02;;;;;;;55.27;2.17;;;;;;;;;;5093688;28;20458;-72
2023/12/12 12:32:30;;;;;;;55.37;2.20;;;;;;;;;;5093447;28;20487;-72
2023/12/12 12:35:06;;;;;;;55.27;2.37;;;;;;;;;;5093534;28;20448;-72
2023/12/12 12:37:34;;;;;;;56.13;2.47;;;;;;;;;;5093645;28;20991;-72
2023/12/12 12:40:04;;;;;;;55.37;2.20;;;;;;;;;;5093432;28;20460;-72
2023/12/12 12:42:34;;;;;;;55.47;2.20;;;;;;;;;;5092957;28;20497;-73
2023/12/12 12:45:02;;;;;;;56.37;2.40;;;;;;;;;;5093492;28;20528;-72
2023/12/12 12:47:31;;;;;;;55.53;1.90;;;;;;;;;;5093352;28;20461;-72
2023/12/12 12:49:58;;;;;;;55.77;2.70;;;;;;;;;;5093404;28;20933;-72
2023/12/12 12:52:25;;;;;;;55.60;2.10;;;;;;;;;;5093017;28;20496;-72
2023/12/12 12:54:52;;;;;;;57.13;2.30;;;;;;;;;;5093285;28;20569;-72
2023/12/12 12:57:20;;;;;;;55.60;2.03;;;;;;;;;;5093271;28;20965;-73
2023/12/12 12:59:47;;;;;;;56.00;2.73;;;;;;;;;;5093431;28;20448;-74
2023/12/12 13:02:14;;;;;;;55.63;2.00;;;;;;;;;;5092861;28;20488;-74
2023/12/12 13:04:42;;;;;;;55.53;2.10;;;;;;;;;;5093112;28;20543;-74
2023/12/12 13:07:09;;;;;;;56.00;2.70;;;;;;;;;;5092925;28;20451;-76
2023/12/12 13:09:36;;;;;;;55.97;2.30;;;;;;;;;;5093003;28;20457;-76
2023/12/12 13:12:04;;;;;;;55.93;2.20;;;;;;;;;;5092720;28;20922;-75
2023/12/12 13:14:31;;;;;;;55.47;2.40;;;;;;;;;;5093110;28;20448;-75
2023/12/12 13:16:58;;;;;;;55.57;2.27;;;;;;;;;;5092867;28;20463;-76
2023/12/12 13:19:26;;;;;;;55.80;2.30;;;;;;;;;;5092884;28;20461;-75
2023/12/12 13:21:55;;;;;;;55.27;2.20;;;;;;;;;;5092526;28;20590;-75
2023/12/12 13:24:23;;;;;;;55.87;2.20;;;;;;;;;;5092808;28;20467;-75
2023/12/12 13:26:50;;;;;;;54.90;2.10;;;;;;;;;;5092881;28;20444;-76
2023/12/12 13:29:17;;;;;;;55.73;2.50;;;;;;;;;;5092768;28;20445;-76
2023/12/12 13:31:44;;;;;;;55.13;2.27;;;;;;;;;;5091819;28;20448;-76
2023/12/12 13:34:12;;;;;;;55.70;2.33;;;;;;;;;;5092554;28;20877;-75
2023/12/12 13:36:40;;;;;;;54.97;2.50;;;;;;;;;;5092286;28;20506;-74
2023/12/12 13:39:12;;;;;;;55.37;2.20;;;;;;;;;;5092568;28;20824;-74
2023/12/12 13:41:40;;;;;;;55.50;2.17;;;;;;;;;;5092495;28;20512;-74
2023/12/12 13:44:07;;;;;;;55.80;2.10;;;;;;;;;;5092368;28;20985;-74
2023/12/12 13:46:35;;;;;;;55.33;2.20;;;;;;;;;;5091902;28;20449;-74
2023/12/12 13:49:02;;;;;;;55.37;2.30;;;;;;;;;;5092408;28;20460;-74
2023/12/12 13:51:29;;;;;;;56.00;2.20;;;;;;;;;;5092623;28;20449;-75
2023/12/12 13:53:56;;;;;;;55.37;2.60;;;;;;;;;;5084185;28;20467;-73
2023/12/12 13:56:26;;;;;;;55.37;2.40;;;;;;;;;;5091963;28;20455;-74
2023/12/12 13:58:53;;;;;;;56.17;2.20;;;;;;;;;;5091920;28;20477;-74
2023/12/12 14:01:20;;;;;;;55.80;2.17;;;;;;;;;;5091770;28;20458;-73
2023/12/12 14:03:47;;;;;;;55.77;2.00;;;;;;;;;;5091832;28;20464;-73
2023/12/12 14:06:14;;;;;;;55.87;2.60;;;;;;;;;;5091836;28;20444;-73
2023/12/12 14:08:41;;;;;;;55.90;2.73;;;;;;;;;;5091859;28;20464;-73
2023/12/12 14:11:08;;;;;;;55.67;2.30;;;;;;;;;;5091908;28;20442;-73
2023/12/12 14:13:36;;;;;;;55.47;2.27;;;;;;;;;;5091464;28;20452;-73
2023/12/12 14:16:04;;;;;;;55.80;2.23;;;;;;;;;;5091469;28;20445;-72
2023/12/12 14:18:31;;;;;;;55.63;1.97;;;;;;;;;;5091424;28;20455;-73
2023/12/12 14:20:58;;;;;;;55.57;2.10;;;;;;;;;;5091702;28;20746;-73
2023/12/12 14:23:25;;;;;;;55.67;2.10;;;;;;;;;;5091212;28;20492;-72
2023/12/12 14:25:52;;;;;;;55.57;2.13;;;;;;;;;;5091540;28;20459;-73
2023/12/12 14:28:19;;;;;;;55.77;2.13;;;;;;;;;;5091440;28;20452;-73
2023/12/12 14:30:48;;;;;;;56.00;2.20;;;;;;;;;;5091653;28;20867;-73
2023/12/12 14:33:17;;;;;;;55.57;2.10;;;;;;;;;;5091115;28;20470;-73
2023/12/12 14:35:44;;;;;;;56.07;2.13;;;;;;;;;;5091276;28;20462;-73
2023/12/12 14:38:11;;;;;;;55.90;2.40;;;;;;;;;;5091408;28;20460;-73